createdAt,value
2023-02-03T00:02:51.890Z,9.03
2023-02-03T00:07:56.177Z,8.99
2023-02-03T00:12:59.123Z,9.05
2023-02-03T00:18:01.972Z,8.98
2023-02-03T00:23:07.253Z,8.93
2023-02-03T00:28:10.109Z,9.01
2023-02-03T00:33:12.961Z,8.98
2023-02-03T00:38:18.442Z,8.98
2023-02-03T00:43:21.316Z,9.03
2023-02-03T00:48:24.099Z,9.03
2023-02-03T00:53:28.187Z,9.01
2023-02-03T00:58:31.273Z,8.99
2023-02-03T01:03:34.232Z,9.05
2023-02-03T01:08:38.409Z,9.08
2023-02-03T01:13:41.764Z,9.17
2023-02-03T01:18:45.135Z,9.19
2023-02-03T01:23:49.356Z,9.27
2023-02-03T01:28:52.759Z,9.29
2023-02-03T01:33:56.297Z,9.27
2023-02-03T01:39:00.672Z,9.31
2023-02-03T01:44:24.103Z,9.23
2023-02-03T01:49:30.697Z,9.18
2023-02-03T01:54:37.648Z,9.29
2023-02-03T01:59:41.200Z,9.24
2023-02-03T02:04:52.318Z,9.28
2023-02-03T02:09:57.421Z,9.31
2023-02-03T02:15:00.428Z,9.30
2023-02-03T02:20:34.795Z,9.38
2023-02-03T02:26:00.956Z,9.39
2023-02-03T02:31:29.955Z,9.41
2023-02-03T02:36:37.616Z,9.43
2023-02-03T02:41:43.728Z,9.29
2023-02-03T02:46:48.598Z,9.25
2023-02-03T02:51:54.407Z,9.28
2023-02-03T02:57:00.914Z,9.26
2023-02-03T03:02:05.857Z,9.25
2023-02-03T03:07:12.708Z,9.23
2023-02-03T03:12:18.329Z,9.29
2023-02-03T03:17:26.329Z,9.27
2023-02-03T03:22:35.642Z,9.22
2023-02-03T03:27:40.638Z,9.14
2023-02-03T03:32:43.570Z,9.10
2023-02-03T03:37:52.512Z,9.06
2023-02-03T03:42:58.279Z,9.03
2023-02-03T03:48:04.634Z,8.99
2023-02-03T03:53:10.880Z,8.94
2023-02-03T03:58:15.856Z,8.92
2023-02-03T04:03:23.250Z,8.93
2023-02-03T04:08:27.404Z,8.95
2023-02-03T04:13:30.211Z,8.99
2023-02-03T04:18:32.919Z,8.98
2023-02-03T04:23:37.058Z,8.97
2023-02-03T04:28:39.917Z,8.91
2023-02-03T04:33:42.747Z,8.93
2023-02-03T04:38:46.860Z,8.87
2023-02-03T04:43:49.809Z,8.88
2023-02-03T04:48:52.545Z,8.82
2023-02-03T04:53:56.640Z,8.81
2023-02-03T04:58:59.433Z,8.79
2023-02-03T05:04:02.211Z,8.78
2023-02-03T05:09:06.622Z,8.76
2023-02-03T05:14:09.427Z,8.69
2023-02-03T05:19:12.212Z,8.71
2023-02-03T05:24:16.361Z,8.63
2023-02-03T05:29:19.141Z,8.69
2023-02-03T05:34:22.051Z,8.74
2023-02-03T05:39:26.143Z,8.67
2023-02-03T05:44:30.364Z,8.67
2023-02-03T05:49:33.128Z,8.67
2023-02-03T05:54:37.300Z,8.62
2023-02-03T05:59:40.070Z,8.59
2023-02-03T06:04:42.879Z,8.60
2023-02-03T06:09:47.455Z,8.63
2023-02-03T06:14:50.230Z,8.64
2023-02-03T06:19:52.977Z,8.68
2023-02-03T06:24:57.152Z,8.73
2023-02-03T06:29:59.884Z,8.79
2023-02-03T06:35:02.661Z,8.85
2023-02-03T06:40:07.993Z,8.87
2023-02-03T06:45:11.396Z,8.78
2023-02-03T06:50:16.736Z,8.69
2023-02-03T06:55:21.030Z,8.63
2023-02-03T07:00:24.400Z,8.61
2023-02-03T07:05:28.266Z,8.62
2023-02-03T07:10:32.446Z,8.62
2023-02-03T07:15:35.672Z,8.61
2023-02-03T07:20:38.614Z,8.64
2023-02-03T07:25:42.924Z,8.66
2023-02-03T07:30:45.856Z,8.60
2023-02-03T07:35:53.034Z,8.63
2023-02-03T07:40:57.462Z,8.71
2023-02-03T07:46:01.789Z,8.77
2023-02-03T07:51:05.010Z,8.82
2023-02-03T07:56:09.184Z,8.92
2023-02-03T08:01:13.523Z,8.97
2023-02-03T08:06:16.374Z,8.99
2023-02-03T08:11:20.647Z,9.01
2023-02-03T08:16:24.794Z,9.03
2023-02-03T08:21:27.678Z,9.11
2023-02-03T08:26:31.899Z,9.15
2023-02-03T08:31:34.966Z,9.14
2023-02-03T08:36:40.042Z,9.24
2023-02-03T08:41:44.349Z,9.25
2023-02-03T08:46:47.271Z,9.35
2023-02-03T08:51:50.261Z,9.39
2023-02-03T08:56:54.905Z,9.29
2023-02-03T09:01:59.796Z,9.36
2023-02-03T09:07:04.333Z,9.40
2023-02-03T09:12:09.035Z,9.47
2023-02-03T09:17:12.063Z,9.58
2023-02-03T09:22:17.461Z,9.56
2023-02-03T09:27:21.874Z,9.61
2023-02-03T09:32:24.740Z,9.57
2023-02-03T09:37:30.617Z,9.58
2023-02-03T09:42:51.275Z,9.58
2023-02-03T09:47:55.490Z,9.63
2023-02-03T09:52:59.885Z,9.63
2023-02-03T09:58:06.806Z,9.67
2023-02-03T10:03:16.835Z,9.63
2023-02-03T10:08:27.285Z,9.61
2023-02-03T10:13:37.209Z,9.76
2023-02-03T10:18:43.150Z,9.76
2023-02-03T10:23:46.764Z,9.82
2023-02-03T10:28:55.841Z,9.93
2023-02-03T10:34:01.988Z,10.06
2023-02-03T10:39:11.732Z,10.09
2023-02-03T10:44:16.482Z,10.12
2023-02-03T10:49:19.527Z,10.07
2023-02-03T10:54:31.992Z,10.15
2023-02-03T10:59:37.676Z,10.10
2023-02-03T11:04:40.565Z,10.14
2023-02-03T11:09:43.823Z,10.13
2023-02-03T11:14:49.818Z,10.05
2023-02-03T11:19:54.127Z,10.03
2023-02-03T11:24:57.507Z,9.98
2023-02-03T11:30:12.602Z,9.88
2023-02-03T11:35:19.398Z,9.86
2023-02-03T11:40:27.896Z,9.88
2023-02-03T11:45:38.960Z,9.91
2023-02-03T11:50:46.596Z,10.06
2023-02-03T11:55:58.257Z,10.19
2023-02-03T12:01:07.290Z,10.20
2023-02-03T12:06:21.792Z,10.18
2023-02-03T12:11:34.495Z,10.28
2023-02-03T12:17:02.657Z,10.41
2023-02-03T12:22:11.409Z,10.45
2023-02-03T12:27:24.077Z,10.45
2023-02-03T12:32:32.597Z,10.39
2023-02-03T12:37:45.347Z,10.49
2023-02-03T12:42:53.261Z,10.44
2023-02-03T12:47:59.969Z,10.41
2023-02-03T12:53:06.514Z,10.29
2023-02-03T12:58:12.718Z,10.19
2023-02-03T13:03:21.449Z,10.11
2023-02-03T13:08:30.603Z,10.08
2023-02-03T13:13:37.156Z,10.12
2023-02-03T13:18:45.047Z,10.04
2023-02-03T13:23:48.417Z,10.03
2023-02-03T13:29:10.025Z,10.04
2023-02-03T13:34:46.983Z,10.00
2023-02-03T13:40:01.449Z,9.97
2023-02-03T13:45:10.279Z,9.94
2023-02-03T13:50:22.816Z,9.98
2023-02-03T13:55:32.493Z,9.99
2023-02-03T14:01:02.318Z,9.92
2023-02-03T14:06:12.046Z,9.94
2023-02-03T14:11:43.655Z,9.96
2023-02-03T14:16:47.843Z,9.92
2023-02-03T14:21:55.095Z,9.96
2023-02-03T14:26:58.783Z,9.91
2023-02-03T14:32:02.993Z,9.73
2023-02-03T14:37:17.188Z,9.87
2023-02-03T14:42:29.951Z,9.84
2023-02-03T14:47:46.233Z,9.79
2023-02-03T14:53:09.214Z,9.77
2023-02-03T14:58:22.800Z,9.74
2023-02-03T15:03:30.285Z,9.65
2023-02-03T15:08:42.147Z,9.60
2023-02-03T15:13:44.943Z,9.49
2023-02-03T15:18:47.795Z,9.48
2023-02-03T15:23:52.695Z,9.43
2023-02-03T15:28:57.026Z,9.46
2023-02-03T15:34:07.950Z,9.46
2023-02-03T15:39:21.638Z,9.43
2023-02-03T15:44:30.336Z,9.40
2023-02-03T15:49:36.097Z,9.39
2023-02-03T15:54:45.627Z,9.35
2023-02-03T15:59:55.048Z,9.36
2023-02-03T16:10:32.022Z,9.18
2023-02-03T16:15:34.992Z,9.12
2023-02-03T16:20:39.836Z,9.06
2023-02-03T16:25:44.047Z,9.05
2023-02-03T16:31:12.550Z,8.87
2023-02-03T16:36:33.083Z,8.77
2023-02-03T16:41:55.394Z,8.60
2023-02-03T16:47:15.728Z,8.54
2023-02-03T16:52:18.604Z,8.58
2023-02-03T16:57:22.770Z,8.54
2023-02-03T17:02:25.700Z,8.58
2023-02-03T17:07:28.596Z,8.62
2023-02-03T17:12:33.589Z,8.61
2023-02-03T17:17:36.439Z,8.57
2023-02-03T17:22:41.799Z,8.46
2023-02-03T17:27:46.190Z,8.41
2023-02-03T17:32:49.135Z,8.49
2023-02-03T17:37:52.956Z,8.51
2023-02-03T17:53:38.772Z,8.67
2023-02-03T17:58:43.346Z,8.71
2023-02-03T18:03:46.601Z,8.75
2023-02-03T18:08:50.197Z,8.78
2023-02-03T18:13:54.806Z,8.80
2023-02-03T18:18:57.945Z,8.83
2023-02-03T18:24:01.911Z,8.85
2023-02-03T18:29:06.700Z,8.84
2023-02-03T18:34:09.484Z,8.85
2023-02-03T18:39:14.243Z,8.87
2023-02-03T18:44:18.428Z,8.88
2023-02-03T18:49:21.216Z,8.88
2023-02-03T18:54:24.015Z,8.83
2023-02-03T18:59:28.086Z,8.85
2023-02-03T19:04:31.173Z,8.83
2023-02-03T19:09:34.697Z,8.84
2023-02-03T19:14:38.836Z,8.82
2023-02-03T19:19:41.722Z,8.80
2023-02-03T19:24:44.580Z,8.79
2023-02-03T19:29:48.877Z,8.80
2023-02-03T19:34:51.813Z,8.79
2023-02-03T19:39:54.667Z,8.77
2023-02-03T19:44:58.833Z,8.79
2023-02-03T19:50:01.709Z,8.80
2023-02-03T19:55:04.901Z,8.81
2023-02-03T20:00:10.900Z,8.82
2023-02-03T20:05:21.700Z,8.81
2023-02-03T20:10:26.334Z,8.79
2023-02-03T20:15:32.035Z,8.81
2023-02-03T20:20:34.969Z,8.80
2023-02-03T20:25:37.820Z,8.80
2023-02-03T20:30:43.908Z,8.82
2023-02-03T20:35:46.774Z,8.78
2023-02-03T20:40:49.840Z,8.82
2023-02-03T20:45:54.217Z,8.79
2023-02-03T20:50:57.090Z,8.78
2023-02-03T20:56:01.845Z,8.73
2023-02-03T21:01:13.108Z,8.68
2023-02-03T21:06:18.257Z,8.73
2023-02-03T21:11:26.535Z,8.76
2023-02-03T21:16:38.604Z,8.78
2023-02-03T21:21:42.829Z,8.77
2023-02-03T21:26:45.706Z,8.75
2023-02-03T21:31:49.931Z,8.77
2023-02-03T21:36:52.771Z,8.73
2023-02-03T21:41:55.955Z,8.72
2023-02-03T21:47:01.340Z,8.75
2023-02-03T21:52:04.424Z,8.75
2023-02-03T21:57:08.751Z,8.73
2023-02-03T22:02:40.600Z,8.74
2023-02-03T22:07:43.571Z,8.67
2023-02-03T22:12:46.393Z,8.70
2023-02-03T22:17:51.039Z,8.69
2023-02-03T22:22:54.328Z,8.71
2023-02-03T22:27:57.138Z,8.70
2023-02-03T22:33:02.130Z,8.68
2023-02-03T22:38:04.960Z,8.66
2023-02-03T22:43:07.893Z,8.68
2023-02-03T22:48:12.129Z,8.66
2023-02-03T22:53:15.643Z,8.63
2023-02-03T22:58:18.491Z,8.64
2023-02-03T23:03:22.706Z,8.67
2023-02-03T23:08:25.580Z,8.67
2023-02-03T23:13:28.830Z,8.64
2023-02-03T23:18:33.101Z,8.63
2023-02-03T23:23:35.907Z,8.62
2023-02-03T23:28:38.756Z,8.63
2023-02-03T23:34:03.989Z,8.64
2023-02-03T23:39:07.382Z,8.62
2023-02-03T23:44:10.925Z,8.59
2023-02-03T23:49:15.144Z,8.56
2023-02-03T23:54:17.937Z,8.53
2023-02-03T23:59:20.823Z,8.46
